Time;durP1;ratioP1;P1;durP2;ratioP2;P2;SDS_P1;SDS_P2;PMS_P1;PMS_P2;Temp;Humidity;BMP_temperature;BMP_pressure;BME280_temperature;BME280_humidity;BME280_pressure;Samples;Min_cycle;Max_cycle;Signal;HPM_P1;HPM_P2
2021/05/02 00:00:18;;;;;;;20.17;15.58;;;;;;;9.68;77.15;99913.63;1630348;86;25744;-83
2021/05/02 00:02:45;;;;;;;19.65;15.23;;;;;;;9.64;77.28;99899.31;1639581;86;25311;-84
2021/05/02 00:05:14;;;;;;;20.43;15.78;;;;;;;9.66;77.35;99896.86;1657162;86;25760;-84
2021/05/02 00:07:40;;;;;;;18.37;14.65;;;;;;;9.70;77.44;99890.30;1656084;86;25809;-85
2021/05/02 00:10:09;;;;;;;20.97;16.35;;;;;;;9.73;77.45;99882.62;1630014;88;25660;-84
2021/05/02 00:12:36;;;;;;;19.55;14.98;;;;;;;9.67;77.28;99880.20;1629874;86;25626;-84
2021/05/02 00:15:05;;;;;;;19.10;14.30;;;;;;;9.68;77.40;99872.69;1629885;86;25762;-84
2021/05/02 00:17:37;;;;;;;19.73;15.43;;;;;;;9.70;77.45;99857.67;1629897;87;25771;-84
2021/05/02 00:20:05;;;;;;;21.00;14.63;;;;;;;9.71;77.42;99855.41;1629923;87;25732;-84
2021/05/02 00:22:34;;;;;;;18.65;14.90;;;;;;;9.69;77.30;99856.06;1629898;87;25814;-84
2021/05/02 00:25:04;;;;;;;19.10;14.78;;;;;;;9.68;77.36;99853.61;1629770;86;25571;-84
2021/05/02 00:27:30;;;;;;;17.15;13.38;;;;;;;9.69;77.44;99862.59;1629885;88;34673;-84
2021/05/02 00:29:55;;;;;;;21.05;14.23;;;;;;;9.71;77.44;99870.23;1611556;86;34118;-84
2021/05/02 00:32:23;;;;;;;19.52;14.40;;;;;;;9.65;77.19;99869.61;1616865;86;31816;-84
2021/05/02 00:34:50;;;;;;;20.30;14.28;;;;;;;9.65;77.34;99870.42;1651693;86;26467;-84
2021/05/02 00:37:17;;;;;;;19.07;14.98;;;;;;;9.65;77.29;99858.68;1651603;86;25234;-84
2021/05/02 00:39:43;;;;;;;20.27;14.33;;;;;;;9.63;77.40;99863.28;1651680;86;25857;-84
2021/05/02 00:42:26;;;;;;;18.80;14.93;;;;;;;9.63;77.37;99868.97;1634365;86;25780;-84
2021/05/02 00:44:58;;;;;;;21.05;14.13;;;;;;;9.67;77.49;99866.35;1648543;86;25282;-84
2021/05/02 00:47:33;;;;;;;18.02;13.72;;;;;;;9.70;77.46;99864.20;1630739;86;25667;-84
2021/05/02 00:50:09;;;;;;;17.90;13.45;;;;;;;9.68;77.37;99858.83;1629765;86;25294;-83
2021/05/02 00:52:50;;;;;;;18.80;13.88;;;;;;;9.67;77.36;99853.30;1629833;87;25672;-83
2021/05/02 00:55:30;;;;;;;18.12;14.87;;;;;;;9.66;77.28;99851.69;1631086;86;25345;-84
2021/05/02 00:58:05;;;;;;;20.35;14.83;;;;;;;9.61;77.30;99848.78;1630700;87;25380;-83
2021/05/02 01:00:39;;;;;;;26.50;14.33;;;;;;;9.62;77.52;99845.17;1630090;87;25906;-84
2021/05/02 01:03:07;;;;;;;20.27;14.35;;;;;;;9.63;77.56;99840.27;1643089;86;25786;-83
2021/05/02 01:05:35;;;;;;;18.75;13.45;;;;;;;9.59;77.46;99832.48;1658093;86;25308;-83
2021/05/02 01:08:04;;;;;;;18.85;14.87;;;;;;;9.56;77.56;99827.91;1655786;86;25438;-82
2021/05/02 01:10:31;;;;;;;18.65;13.78;;;;;;;9.56;77.55;99825.80;1644277;86;25325;-82
2021/05/02 01:13:03;;;;;;;17.00;13.30;;;;;;;9.55;77.58;99831.52;1631319;87;25830;-83
2021/05/02 01:15:33;;;;;;;18.00;14.55;;;;;;;9.60;77.67;99839.30;1631085;86;25790;-83
2021/05/02 01:18:04;;;;;;;16.70;13.00;;;;;;;9.59;77.58;99850.73;1631307;86;25730;-84
2021/05/02 01:20:38;;;;;;;17.50;13.80;;;;;;;9.50;77.48;99849.97;1631114;86;25677;-83
2021/05/02 01:23:15;;;;;;;16.90;12.98;;;;;;;9.48;77.71;99850.63;1630379;86;25778;-83
2021/05/02 01:25:41;;;;;;;16.75;13.20;;;;;;;9.48;77.76;99834.48;1630671;86;25729;-82
2021/05/02 01:28:08;;;;;;;17.77;14.83;;;;;;;9.51;77.76;99831.52;1631148;87;25512;-85
2021/05/02 01:30:34;;;;;;;17.77;14.85;;;;;;;9.53;77.77;99837.89;1631298;87;25297;-85
2021/05/02 01:33:00;;;;;;;20.88;13.98;;;;;;;9.55;77.78;99833.32;1631353;87;33067;-83
2021/05/02 01:35:25;;;;;;;17.97;13.23;;;;;;;9.56;77.73;99824.50;1631233;86;31393;-84
2021/05/02 01:37:53;;;;;;;19.03;14.70;;;;;;;9.59;77.77;99816.82;1631128;86;25714;-83
2021/05/02 01:40:20;;;;;;;19.85;14.60;;;;;;;9.58;77.60;99802.97;1634290;87;25717;-83
2021/05/02 01:42:47;;;;;;;17.55;14.28;;;;;;;9.52;77.56;99787.52;1631251;87;25676;-85
2021/05/02 01:45:14;;;;;;;17.95;14.25;;;;;;;9.52;77.76;99786.67;1631150;87;25323;-85
2021/05/02 01:47:45;;;;;;;18.50;13.98;;;;;;;9.54;77.74;99785.52;1612670;87;25761;-83
2021/05/02 01:50:12;;;;;;;18.92;13.83;;;;;;;9.54;77.73;99784.72;1640911;86;25864;-83
2021/05/02 01:52:44;;;;;;;19.52;13.85;;;;;;;9.53;77.71;99779.19;1643242;86;25714;-83
2021/05/02 01:55:13;;;;;;;18.57;13.25;;;;;;;9.45;78.03;99764.39;1631176;87;25257;-83
2021/05/02 01:57:40;;;;;;;17.50;13.62;;;;;;;9.40;77.79;99769.81;1631214;87;25611;-83
2021/05/02 02:00:11;;;;;;;17.50;13.10;;;;;;;9.38;77.83;99763.95;1631203;86;25721;-83
2021/05/02 02:02:38;;;;;;;17.73;13.90;;;;;;;9.38;78.00;99754.31;1631126;87;25691;-83
2021/05/02 02:05:05;;;;;;;15.63;13.10;;;;;;;9.41;78.03;99751.86;1631159;87;25277;-83
2021/05/02 02:07:33;;;;;;;19.17;14.68;;;;;;;9.40;77.96;99758.88;1631323;86;25647;-83
2021/05/02 02:09:59;;;;;;;18.37;13.58;;;;;;;9.41;78.03;99754.00;1629096;87;25681;-83
2021/05/02 02:12:25;;;;;;;18.48;14.60;;;;;;;9.40;77.98;99756.27;1630284;86;25302;-83
2021/05/02 02:14:53;;;;;;;16.80;13.68;;;;;;;9.40;78.06;99753.66;1629910;86;25755;-83
2021/05/02 02:17:19;;;;;;;18.32;14.68;;;;;;;9.37;78.00;99746.19;1629809;86;25722;-82
2021/05/02 02:19:46;;;;;;;17.42;13.45;;;;;;;9.37;78.09;99740.97;1629860;87;25709;-81
2021/05/02 02:22:15;;;;;;;18.30;14.15;;;;;;;9.39;78.16;99729.08;1630664;86;25476;-81
2021/05/02 02:24:58;;;;;;;20.72;14.50;;;;;;;9.39;78.13;99714.23;1631212;86;25234;-82
2021/05/02 02:27:31;;;;;;;18.75;14.47;;;;;;;9.39;78.13;99709.52;1631166;86;25716;-81
2021/05/02 02:30:03;;;;;;;19.00;13.50;;;;;;;9.34;78.10;99700.89;1631150;87;25784;-81
2021/05/02 02:32:30;;;;;;;17.02;13.68;;;;;;;9.30;78.18;99699.60;1636583;86;25266;-84
2021/05/02 02:34:58;;;;;;;17.02;13.35;;;;;;;9.27;78.26;99697.34;1651667;86;25733;-84
2021/05/02 02:37:26;;;;;;;17.80;13.72;;;;;;;9.22;78.27;99695.74;1618363;87;25984;-83
2021/05/02 02:39:59;;;;;;;19.62;16.45;;;;;;;9.18;78.42;99687.96;1629781;88;25788;-83
2021/05/02 02:42:27;;;;;;;17.17;14.93;;;;;;;9.17;78.53;99688.45;1632177;86;25801;-83
2021/05/02 02:44:57;;;;;;;19.77;14.23;;;;;;;9.23;78.62;99690.86;1651613;86;25800;-83
2021/05/02 02:47:33;;;;;;;;;;;;;;;9.26;78.65;99687.41;1654153;86;25363;-83
2021/05/02 02:50:00;;;;;;;17.90;13.98;;;;;;;9.29;78.70;99686.25;1607295;89;25641;-82
2021/05/02 02:52:28;;;;;;;19.50;14.68;;;;;;;9.31;78.75;99683.80;1589073;89;25744;-82
2021/05/02 02:55:07;;;;;;;17.45;13.68;;;;;;;9.34;78.73;99676.12;1584829;90;26081;-82
2021/05/02 02:57:47;;;;;;;19.00;14.98;;;;;;;9.33;78.73;99664.88;1585006;90;25338;-80
2021/05/02 03:00:16;;;;;;;16.48;13.70;;;;;;;9.28;78.70;99647.64;1574718;89;25595;-81
2021/05/02 03:02:46;;;;;;;18.87;14.25;;;;;;;9.27;78.94;99637.37;1604387;88;25758;-81
2021/05/02 03:05:15;;;;;;;;;;;;;;;9.25;78.88;99634.15;1614032;89;26657;-81
2021/05/02 03:07:43;;;;;;;18.67;13.15;;;;;;;9.21;78.91;99631.55;1585326;90;25498;-81
2021/05/02 03:10:11;;;;;;;17.25;13.28;;;;;;;9.21;79.00;99627.14;1584895;90;25290;-81
2021/05/02 03:12:39;;;;;;;17.98;12.43;;;;;;;9.24;79.04;99618.16;1584875;90;25699;-81
2021/05/02 03:15:06;;;;;;;17.27;12.93;;;;;;;9.22;79.53;99627.95;1584929;89;25785;-81
2021/05/02 03:17:33;;;;;;;21.30;13.55;;;;;;;9.16;79.10;99633.37;1584894;90;25738;-82
2021/05/02 03:20:06;;;;;;;19.57;13.70;;;;;;;9.19;79.17;99635.63;1584891;89;25764;-82
2021/05/02 03:22:58;;;;;;;16.52;13.13;;;;;;;9.20;79.15;99618.21;1586049;90;25418;-81
2021/05/02 03:25:29;;;;;;;18.00;13.45;;;;;;;9.23;79.21;99606.13;1586215;89;25416;-81
2021/05/02 03:28:08;;;;;;;17.55;13.15;;;;;;;9.20;79.18;99594.25;1586244;90;25825;-82
2021/05/02 03:30:35;;;;;;;16.35;12.20;;;;;;;9.19;79.19;99597.02;1586228;90;25857;-80
2021/05/02 03:33:05;;;;;;;16.97;13.55;;;;;;;9.16;79.26;99598.67;1597283;89;25657;-81
2021/05/02 03:35:34;;;;;;;17.55;13.50;;;;;;;9.16;79.40;99599.97;1603483;89;25305;-83
2021/05/02 03:38:28;;;;;;;17.77;13.38;;;;;;;9.18;79.38;99601.42;1584852;89;25719;-83
2021/05/02 03:40:56;;;;;;;19.82;13.15;;;;;;;9.19;79.53;99594.41;1584977;89;25774;-83
2021/05/02 03:43:22;;;;;;;16.82;12.68;;;;;;;9.15;79.47;99577.51;1584857;89;25593;-84
2021/05/02 03:45:48;;;;;;;17.03;13.10;;;;;;;9.16;79.51;99568.69;1584798;90;25318;-84
2021/05/02 03:48:15;;;;;;;20.20;13.37;;;;;;;9.17;79.57;99563.81;1584921;90;25766;-83
2021/05/02 03:50:41;;;;;;;20.65;13.05;;;;;;;9.20;79.63;99563.45;1586787;89;25413;-82
2021/05/02 03:53:07;;;;;;;21.97;12.73;;;;;;;9.24;79.63;99556.39;1586164;89;30432;-82
2021/05/02 03:55:47;;;;;;;16.20;12.50;;;;;;;9.26;79.58;99561.44;1586251;89;25477;-83
2021/05/02 03:58:15;;;;;;;17.00;12.98;;;;;;;9.26;79.55;99565.35;1586244;89;25323;-82
2021/05/02 04:00:43;;;;;;;18.50;13.13;;;;;;;9.27;79.54;99563.05;1586186;90;25603;-82
2021/05/02 04:03:14;;;;;;;17.45;12.88;;;;;;;9.28;79.60;99579.84;1599081;89;25769;-82
2021/05/02 04:05:41;;;;;;;18.32;12.78;;;;;;;9.30;79.65;99579.64;1592605;89;25307;-83
2021/05/02 04:08:09;;;;;;;15.68;12.10;;;;;;;9.32;79.62;99581.09;1585848;90;25745;-82
2021/05/02 04:10:35;;;;;;;14.58;11.88;;;;;;;9.34;79.66;99571.80;1584838;89;25263;-82
2021/05/02 04:13:01;;;;;;;16.87;12.37;;;;;;;9.36;79.71;99570.30;1584860;90;25474;-82
2021/05/02 04:15:27;;;;;;;16.60;13.13;;;;;;;9.36;79.67;99580.27;1584872;90;25747;-82
2021/05/02 04:17:53;;;;;;;16.43;12.80;;;;;;;9.37;79.63;99591.50;1584888;90;31481;-82
2021/05/02 04:20:19;;;;;;;14.93;11.83;;;;;;;9.41;79.70;99591.45;1585676;89;25865;-83
2021/05/02 04:22:47;;;;;;;16.32;12.25;;;;;;;9.45;79.71;99584.41;1586028;90;25823;-81
2021/05/02 04:25:12;;;;;;;15.83;12.53;;;;;;;9.47;79.67;99570.71;1586129;89;25802;-81
2021/05/02 04:27:38;;;;;;;14.40;11.73;;;;;;;9.48;79.62;99555.86;1586110;90;32968;-81
2021/05/02 04:30:06;;;;;;;16.60;13.77;;;;;;;9.47;79.87;99553.75;1586434;89;32691;-81
2021/05/02 04:32:32;;;;;;;15.70;12.75;;;;;;;9.43;79.73;99544.66;1593064;89;25661;-81
2021/05/02 04:34:59;;;;;;;14.98;12.03;;;;;;;9.42;79.73;99541.73;1583618;89;44022;-81
2021/05/02 04:37:25;;;;;;;20.92;13.80;;;;;;;9.41;79.80;99532.30;1586153;90;25281;-81
2021/05/02 04:39:51;;;;;;;17.73;13.40;;;;;;;9.42;79.86;99538.33;1588019;89;33117;-81
2021/05/02 04:42:17;;;;;;;16.67;13.47;;;;;;;9.43;79.92;99527.70;1584953;89;30698;-82
2021/05/02 04:44:42;;;;;;;15.13;13.40;;;;;;;9.45;80.03;99519.70;1584933;89;25616;-83
2021/05/02 04:47:08;;;;;;;16.60;12.57;;;;;;;9.43;79.95;99518.56;1584856;90;26476;-83
2021/05/02 04:49:34;;;;;;;15.67;11.63;;;;;;;9.47;80.01;99516.44;1586507;89;25755;-83
2021/05/02 04:52:00;;;;;;;15.85;12.43;;;;;;;9.51;80.02;99508.55;1581644;89;33621;-83
2021/05/02 04:54:26;;;;;;;17.02;12.25;;;;;;;9.54;80.00;99509.50;1581750;90;30905;-83
2021/05/02 04:56:51;;;;;;;15.33;13.03;;;;;;;9.54;79.96;99516.82;1583903;89;25740;-83
2021/05/02 04:59:17;;;;;;;15.27;11.87;;;;;;;9.58;79.99;99519.09;1585011;90;28196;-83
2021/05/02 05:01:44;;;;;;;15.23;12.73;;;;;;;9.58;79.99;99522.51;1584965;90;25359;-83
2021/05/02 05:04:10;;;;;;;21.07;13.35;;;;;;;9.61;80.04;99512.21;1609730;87;25317;-82
2021/05/02 05:06:36;;;;;;;16.45;12.82;;;;;;;9.62;80.03;99509.41;1611554;89;25340;-84
2021/05/02 05:09:06;;;;;;;15.83;12.37;;;;;;;9.63;80.07;99503.69;1595338;89;25798;-84
2021/05/02 05:11:32;;;;;;;16.17;13.10;;;;;;;9.66;80.05;99490.31;1585022;89;26047;-82
2021/05/02 05:13:58;;;;;;;16.77;12.30;;;;;;;9.69;80.08;99476.90;1585049;90;25330;-83
2021/05/02 05:16:24;;;;;;;16.15;12.33;;;;;;;9.71;80.04;99472.28;1585100;89;25714;-83
2021/05/02 05:18:49;;;;;;;16.70;12.10;;;;;;;9.72;80.07;99468.70;1585388;90;30698;-83
2021/05/02 05:21:15;;;;;;;15.43;12.70;;;;;;;9.76;80.08;99475.17;1585386;90;25652;-83
2021/05/02 05:23:41;;;;;;;15.67;12.20;;;;;;;9.76;80.06;99474.66;1585062;89;27914;-83
2021/05/02 05:26:06;;;;;;;14.80;12.20;;;;;;;9.78;80.01;99475.30;1585346;89;25859;-82
2021/05/02 05:28:32;;;;;;;18.40;13.40;;;;;;;9.81;80.00;99469.41;1586116;90;34585;-82
2021/05/02 05:30:58;;;;;;;16.02;13.05;;;;;;;9.80;79.91;99462.08;1586219;89;31156;-81
2021/05/02 05:33:30;;;;;;;16.73;12.23;;;;;;;9.82;79.98;99463.19;1597924;89;25433;-83
2021/05/02 05:35:55;;;;;;;16.02;12.68;;;;;;;9.84;79.96;99461.22;1586213;89;25523;-83
2021/05/02 05:38:22;;;;;;;15.90;12.27;;;;;;;9.85;79.96;99451.91;1586095;90;25338;-82
2021/05/02 05:40:47;;;;;;;16.70;13.00;;;;;;;9.87;79.93;99447.80;1586030;89;25285;-82
2021/05/02 05:43:13;;;;;;;18.50;12.93;;;;;;;9.88;79.88;99446.82;1586109;90;31645;-82
2021/05/02 05:45:39;;;;;;;15.60;12.90;;;;;;;9.88;79.90;99439.80;1586156;89;25431;-82
2021/05/02 05:48:05;;;;;;;16.53;12.77;;;;;;;9.88;79.91;99431.97;1586001;90;26510;-82
2021/05/02 05:50:32;;;;;;;16.67;12.65;;;;;;;9.89;79.89;99432.77;1585930;89;25779;-82
2021/05/02 05:52:58;;;;;;;16.35;12.55;;;;;;;9.91;79.91;99422.45;1586167;90;25412;-82
2021/05/02 05:55:25;;;;;;;14.58;11.90;;;;;;;9.92;79.90;99428.48;1586177;90;30866;-83
2021/05/02 05:57:52;;;;;;;18.67;12.40;;;;;;;9.93;79.88;99427.01;1586096;89;26472;-82
2021/05/02 06:00:21;;;;;;;17.52;13.20;;;;;;;9.95;79.90;99422.89;1586230;89;25422;-83
2021/05/02 06:02:47;;;;;;;16.17;11.75;;;;;;;9.95;79.80;99406.73;1595264;89;25325;-84
2021/05/02 06:05:13;;;;;;;13.60;10.85;;;;;;;9.96;79.87;99408.87;1598199;87;25335;-83
2021/05/02 06:07:39;;;;;;;17.07;13.30;;;;;;;10.00;79.91;99407.48;1585452;89;25274;-83
2021/05/02 06:10:07;;;;;;;16.67;13.23;;;;;;;10.03;79.92;99395.88;1585031;89;25810;-84
2021/05/02 06:12:33;;;;;;;15.90;12.43;;;;;;;10.04;79.85;99389.64;1584809;90;25255;-83
2021/05/02 06:15:01;;;;;;;15.72;11.80;;;;;;;10.02;79.78;99375.48;1584857;90;25730;-85
2021/05/02 06:17:26;;;;;;;16.48;11.45;;;;;;;10.04;79.77;99366.15;1584987;89;25449;-83
2021/05/02 06:19:53;;;;;;;17.30;12.93;;;;;;;10.05;79.83;99350.81;1585610;89;32023;-83
2021/05/02 06:22:19;;;;;;;16.45;13.00;;;;;;;10.06;79.80;99345.89;1586622;89;25643;-83
2021/05/02 06:24:45;;;;;;;15.67;12.33;;;;;;;10.10;79.89;99340.13;1586673;90;27434;-84
2021/05/02 06:27:11;;;;;;;14.78;12.20;;;;;;;10.15;79.89;99344.28;1586756;90;25298;-84
2021/05/02 06:29:37;;;;;;;15.65;11.20;;;;;;;10.18;79.78;99348.33;1586446;89;25694;-85
2021/05/02 06:32:03;;;;;;;19.10;13.03;;;;;;;10.19;79.74;99332.45;1588951;89;31501;-83
2021/05/02 06:34:29;;;;;;;17.27;12.75;;;;;;;10.19;79.68;99320.70;1593536;88;25633;-83
2021/05/02 06:36:58;;;;;;;17.50;13.00;;;;;;;10.21;79.73;99308.78;1584946;89;25451;-84
2021/05/02 06:39:23;;;;;;;16.97;14.13;;;;;;;10.21;79.67;99303.56;1585170;89;25739;-85
2021/05/02 06:41:48;;;;;;;16.15;13.13;;;;;;;10.20;79.61;99291.48;1584901;89;34328;-83
2021/05/02 06:44:14;;;;;;;16.93;12.53;;;;;;;10.21;79.65;99283.97;1585250;90;31750;-84
2021/05/02 06:46:40;;;;;;;20.03;13.23;;;;;;;10.20;79.65;99279.25;1585001;90;25594;-83
2021/05/02 06:49:08;;;;;;;16.23;12.87;;;;;;;10.23;79.69;99284.09;1584909;89;27882;-83
2021/05/02 06:51:35;;;;;;;15.15;11.30;;;;;;;10.27;79.63;99279.80;1586204;90;25306;-84
2021/05/02 06:54:02;;;;;;;14.25;12.07;;;;;;;10.27;79.63;99267.57;1586253;90;25317;-84
2021/05/02 06:56:28;;;;;;;14.65;12.03;;;;;;;10.28;79.57;99256.62;1586267;89;25289;-84
2021/05/02 06:58:55;;;;;;;14.93;11.40;;;;;;;10.29;79.59;99248.61;1585881;90;25849;-83
2021/05/02 07:01:23;;;;;;;16.52;11.45;;;;;;;10.33;79.64;99249.02;1584911;90;25723;-83
2021/05/02 07:03:49;;;;;;;14.73;11.15;;;;;;;10.36;79.52;99244.72;1593468;89;25866;-86
2021/05/02 07:06:14;;;;;;;14.98;11.68;;;;;;;10.38;79.44;99240.13;1586659;90;34138;-85
2021/05/02 07:08:41;;;;;;;17.07;12.40;;;;;;;10.37;79.39;99238.02;1586979;90;32388;-85
2021/05/02 07:11:07;;;;;;;15.75;10.95;;;;;;;10.38;79.38;99229.17;1586868;89;25848;-85
2021/05/02 07:13:34;;;;;;;13.18;10.40;;;;;;;10.38;79.31;99220.53;1586905;90;25238;-85
2021/05/02 07:16:00;;;;;;;14.43;10.80;;;;;;;10.41;79.38;99217.53;1587008;90;25273;-86
2021/05/02 07:18:35;;;;;;;12.98;9.80;;;;;;;10.42;79.28;99202.98;1586722;89;25274;-84
2021/05/02 07:21:00;;;;;;;13.88;11.22;;;;;;;10.47;79.28;99197.67;1585316;89;25334;-84
2021/05/02 07:23:26;;;;;;;13.93;11.10;;;;;;;10.47;79.21;99177.56;1585472;89;25893;-85
2021/05/02 07:25:53;;;;;;;12.30;10.05;;;;;;;10.47;79.19;99162.41;1585332;90;25480;-84
2021/05/02 07:28:19;;;;;;;14.40;11.38;;;;;;;10.48;79.28;99147.05;1585514;90;25338;-84
2021/05/02 07:30:45;;;;;;;15.05;11.38;;;;;;;10.47;79.23;99146.73;1585559;89;25291;-84
2021/05/02 07:33:11;;;;;;;14.25;10.43;;;;;;;10.47;79.51;99133.16;1588129;89;32232;-82
2021/05/02 07:35:37;;;;;;;14.13;11.77;;;;;;;10.44;79.55;99123.91;1586331;90;25488;-81
2021/05/02 07:38:04;;;;;;;14.67;11.83;;;;;;;10.44;79.70;99122.59;1586185;89;29194;-82
2021/05/02 07:40:30;;;;;;;16.42;11.43;;;;;;;10.42;79.96;99110.73;1587040;90;25302;-82
2021/05/02 07:42:56;;;;;;;14.43;12.13;;;;;;;10.39;79.98;99104.12;1587559;90;25290;-81
2021/05/02 07:45:22;;;;;;;15.20;11.88;;;;;;;10.38;80.13;99097.77;1587645;90;30931;-82
2021/05/02 07:47:48;;;;;;;14.93;11.38;;;;;;;10.42;80.29;99092.45;1586796;89;25594;-82
2021/05/02 07:50:14;;;;;;;14.03;11.80;;;;;;;10.44;80.43;99100.39;1587073;90;28216;-82
2021/05/02 07:52:44;;;;;;;15.18;12.03;;;;;;;10.46;80.28;99094.19;1587149;90;25246;-82
2021/05/02 07:55:12;;;;;;;15.45;11.95;;;;;;;10.44;80.28;99087.84;1587231;90;25287;-82
2021/05/02 07:57:59;;;;;;;14.23;10.38;;;;;;;10.41;80.31;99081.20;1587000;89;25330;-82
2021/05/02 08:00:26;;;;;;;16.42;11.75;;;;;;;10.42;80.47;99069.77;1650395;85;25883;-70
2021/05/02 08:02:52;;;;;;;15.20;11.03;;;;;;;10.40;80.44;99058.70;1652375;85;25723;-69
2021/05/02 08:05:18;;;;;;;15.50;11.70;;;;;;;10.40;80.43;99061.82;1601688;87;26012;-70
2021/05/02 08:07:44;;;;;;;13.35;10.93;;;;;;;10.39;80.49;99057.58;1605895;87;34550;-70
2021/05/02 08:10:11;;;;;;;19.57;12.70;;;;;;;10.37;80.67;99053.88;1603798;87;25786;-70
2021/05/02 08:12:38;;;;;;;14.93;11.65;;;;;;;10.41;80.96;99060.80;1610666;87;25856;-70
2021/05/02 08:15:06;;;;;;;15.65;11.45;;;;;;;10.39;80.88;99058.41;1612689;87;25781;-70
2021/05/02 08:17:33;;;;;;;14.50;11.43;;;;;;;10.35;80.97;99047.23;1613538;87;25792;-69
2021/05/02 08:19:59;;;;;;;16.37;12.30;;;;;;;10.31;81.12;99044.22;1614582;87;25829;-69
2021/05/02 08:22:25;;;;;;;14.98;10.18;;;;;;;10.28;81.35;99034.14;1607562;87;25933;-69
2021/05/02 08:24:51;;;;;;;13.38;11.85;;;;;;;10.25;81.65;99025.86;1613427;87;26664;-68
2021/05/02 08:27:17;;;;;;;18.85;11.95;;;;;;;10.21;81.72;99028.88;1609535;87;25357;-70
2021/05/02 08:29:43;;;;;;;14.40;11.77;;;;;;;10.19;81.75;99032.17;1598921;87;25944;-70
2021/05/02 08:32:09;;;;;;;13.88;11.57;;;;;;;10.21;81.87;99024.95;1592441;87;35425;-70
2021/05/02 08:34:34;;;;;;;14.43;11.53;;;;;;;10.18;81.92;99031.88;1622837;86;30758;-70
2021/05/02 08:37:00;;;;;;;15.67;11.73;;;;;;;10.17;82.23;99020.31;1624375;86;25859;-70
2021/05/02 08:39:27;;;;;;;17.03;12.17;;;;;;;10.16;82.08;99010.37;1623661;86;28456;-69
2021/05/02 08:41:52;;;;;;;16.23;11.75;;;;;;;10.17;82.18;99010.66;1621689;86;25844;-70
2021/05/02 08:44:23;;;;;;;17.25;13.05;;;;;;;10.15;82.26;99008.77;1621875;86;34921;-70
2021/05/02 08:46:46;;;;;;;14.83;12.37;;;;;;;10.17;82.40;99000.73;1621710;85;25800;-69
2021/05/02 08:49:12;;;;;;;14.50;12.03;;;;;;;10.16;82.37;99005.15;1621243;86;25813;-69
2021/05/02 08:51:38;;;;;;;14.07;11.47;;;;;;;10.18;82.48;99025.34;1622549;86;26915;-69
2021/05/02 08:54:04;;;;;;;14.60;12.07;;;;;;;10.18;82.48;99027.16;1620955;86;25942;-68
2021/05/02 08:56:29;;;;;;;12.55;10.90;;;;;;;10.16;82.53;99018.71;1621830;86;25777;-69
2021/05/02 09:02:56;;;;;;;17.45;13.22;;;;;;;10.19;82.82;99008.67;1619907;86;25804;-69
2021/05/02 09:05:23;;;;;;;19.75;13.50;;;;;;;10.25;83.03;99014.11;1651429;85;25369;-70
2021/05/02 09:07:49;;;;;;;16.62;12.73;;;;;;;10.25;83.15;98986.70;1621237;86;25843;-69
2021/05/02 09:10:18;;;;;;;18.57;13.08;;;;;;;10.21;83.32;98966.71;1621050;86;34569;-70
2021/05/02 09:13:00;;;;;;;16.70;12.70;;;;;;;10.18;83.40;98974.94;1620666;86;25992;-70
2021/05/02 09:15:26;;;;;;;16.15;12.28;;;;;;;10.15;83.55;98964.89;1607915;86;25853;-71
2021/05/02 09:18:03;;;;;;;18.17;14.13;;;;;;;10.15;83.65;98972.22;1619889;86;25800;-72
2021/05/02 09:20:54;;;;;;;18.50;14.70;;;;;;;10.15;83.76;98983.97;1620412;86;25982;-72
2021/05/02 09:23:20;;;;;;;19.90;16.27;;;;;;;10.09;83.71;98992.56;1621391;86;25829;-74
2021/05/02 09:25:52;;;;;;;20.92;17.57;;;;;;;10.09;83.91;98985.23;1620729;86;25736;-71
2021/05/02 09:28:43;;;;;;;19.00;14.40;;;;;;;10.10;84.08;98963.37;1620731;86;26425;-73
2021/05/02 09:31:13;;;;;;;16.25;13.50;;;;;;;10.10;84.22;98938.06;1612734;86;25803;-73
2021/05/02 09:33:40;;;;;;;18.62;14.68;;;;;;;10.07;84.29;98949.41;1628299;86;25888;-71
2021/05/02 09:36:08;;;;;;;16.40;14.15;;;;;;;10.07;84.58;98935.84;1622071;86;25782;-72
2021/05/02 09:38:35;;;;;;;25.65;14.33;;;;;;;10.06;84.50;98924.28;1629123;86;25773;-72
2021/05/02 09:41:02;;;;;;;21.12;16.62;;;;;;;10.05;84.65;98916.95;1652986;85;26515;-71
2021/05/02 09:43:50;;;;;;;18.50;15.35;;;;;;;10.08;84.71;98916.56;1650529;85;25957;-72
2021/05/02 09:46:29;;;;;;;18.32;15.43;;;;;;;10.07;84.95;98905.83;1621271;86;25737;-73
2021/05/02 09:49:12;;;;;;;17.10;14.93;;;;;;;10.10;84.93;98905.94;1621422;86;26561;-72
2021/05/02 09:51:53;;;;;;;15.68;12.95;;;;;;;10.09;84.97;98899.88;1622791;86;26497;-73
2021/05/02 09:54:26;;;;;;;17.82;14.47;;;;;;;10.12;85.10;98881.72;1620075;86;25755;-72
2021/05/02 09:56:54;;;;;;;16.50;14.00;;;;;;;10.09;85.04;98881.61;1619365;86;25980;-75
2021/05/02 09:59:34;;;;;;;18.12;15.20;;;;;;;10.06;85.24;98864.25;1620669;86;25834;-72
2021/05/02 10:02:16;;;;;;;17.02;13.10;;;;;;;10.05;85.39;98847.78;1649491;85;25747;-72
2021/05/02 10:04:46;;;;;;;18.27;14.53;;;;;;;10.05;85.47;98831.33;1622258;86;25760;-72
2021/05/02 10:07:13;;;;;;;;;;;;;;;10.02;85.67;98824.69;1625366;86;25794;-73
2021/05/02 10:09:40;;;;;;;17.17;13.93;;;;;;;10.00;85.84;98817.55;1621860;86;25927;-73
2021/05/02 10:12:07;;;;;;;16.30;13.78;;;;;;;10.02;86.13;98812.15;1621917;86;25773;-73
2021/05/02 10:14:35;;;;;;;18.27;15.45;;;;;;;10.03;86.04;98804.61;1623364;86;25791;-72
2021/05/02 10:17:02;;;;;;;15.93;13.68;;;;;;;10.02;85.96;98799.90;1623634;86;25731;-72
2021/05/02 10:19:29;;;;;;;17.32;14.85;;;;;;;10.06;86.47;98791.16;1623556;86;25753;-73
2021/05/02 10:21:56;;;;;;;17.42;14.43;;;;;;;10.07;86.35;98792.27;1624955;86;25751;-72
2021/05/02 10:24:23;;;;;;;19.37;14.00;;;;;;;10.10;86.44;98810.65;1624506;86;25702;-72
2021/05/02 10:26:51;;;;;;;19.27;15.80;;;;;;;10.09;86.19;98833.31;1622275;86;25778;-70
2021/05/02 10:29:29;;;;;;;19.02;14.83;;;;;;;10.09;86.23;98818.95;1623553;86;25743;-71
2021/05/02 10:32:11;;;;;;;16.70;14.68;;;;;;;10.08;86.32;98813.45;1629490;86;25869;-70
2021/05/02 10:34:43;;;;;;;17.98;15.28;;;;;;;10.05;86.33;98808.62;1621863;86;26214;-72
2021/05/02 10:37:28;;;;;;;16.12;14.40;;;;;;;10.09;86.41;98810.33;1622080;86;25879;-72
2021/05/02 10:40:11;;;;;;;16.50;14.53;;;;;;;10.12;87.29;98808.14;1650452;85;25849;-72
2021/05/02 10:42:50;;;;;;;21.60;14.85;;;;;;;10.13;86.55;98806.33;1621507;86;25750;-72
2021/05/02 10:45:41;;;;;;;17.10;14.35;;;;;;;10.15;86.53;98818.69;1622456;86;25833;-73
2021/05/02 10:48:17;;;;;;;17.90;14.73;;;;;;;10.15;86.53;98806.94;1623622;86;25722;-72
2021/05/02 10:50:46;;;;;;;17.73;14.35;;;;;;;10.18;86.66;98792.97;1623960;86;25969;-73
2021/05/02 10:53:18;;;;;;;18.65;14.63;;;;;;;10.21;86.71;98790.47;1620381;86;26452;-73
2021/05/02 10:56:06;;;;;;;17.48;14.55;;;;;;;10.24;86.77;98792.67;1620568;86;25924;-71
2021/05/02 10:58:36;;;;;;;16.70;13.72;;;;;;;10.26;86.74;98773.70;1622418;86;25821;-71
2021/05/02 11:01:09;;;;;;;14.53;12.75;;;;;;;10.28;86.76;98766.98;1621877;86;25740;-74
2021/05/02 11:03:43;;;;;;;15.53;13.88;;;;;;;10.29;86.85;98756.85;1623246;86;25926;-74
2021/05/02 11:06:12;;;;;;;17.35;12.70;;;;;;;10.29;86.87;98746.41;1578414;89;26097;-73
2021/05/02 11:08:51;;;;;;;16.85;14.47;;;;;;;10.30;86.86;98747.48;1578072;89;25369;-73
2021/05/02 11:11:38;;;;;;;15.18;13.53;;;;;;;10.34;86.92;98746.58;1560687;90;25793;-74
2021/05/02 11:14:15;;;;;;;17.95;14.40;;;;;;;10.35;86.96;98741.67;1560923;90;25825;-73
2021/05/02 11:16:50;;;;;;;15.63;13.70;;;;;;;10.37;87.00;98729.22;1570378;89;25900;-72
2021/05/02 11:19:37;;;;;;;15.88;14.03;;;;;;;10.37;87.73;98712.24;1572104;89;25488;-72
2021/05/02 11:22:08;;;;;;;20.65;16.82;;;;;;;10.36;87.16;98716.64;1569362;89;26687;-73
2021/05/02 11:24:51;;;;;;;20.45;15.83;;;;;;;10.40;87.42;98711.33;1569685;89;26466;-72
2021/05/02 11:30:02;;;;;;;18.15;16.12;;;;;;;10.45;87.58;98700.27;1585082;88;25829;-73
2021/05/02 11:32:36;;;;;;;22.98;17.80;;;;;;;10.48;87.68;98682.87;1604981;87;25906;-72
2021/05/02 11:35:15;;;;;;;20.60;16.65;;;;;;;10.52;87.80;98677.52;1603897;87;25790;-73
2021/05/02 11:37:54;;;;;;;20.77;16.20;;;;;;;10.56;87.79;98667.48;1602778;87;26613;-73